sensor_id;sensor_type;location;lat;lon;timestamp;P1;durP1;ratioP1;P2;durP2;ratioP2
55015;SDS011;40919;43.236;21.590;2022-08-02T00:02:17;10.27;;;7.88;;
55015;SDS011;40919;43.236;21.590;2022-08-02T00:04:44;10.27;;;7.32;;
55015;SDS011;40919;43.236;21.590;2022-08-02T00:07:10;9.43;;;7.25;;
55015;SDS011;40919;43.236;21.590;2022-08-02T00:09:36;9.38;;;7.15;;
55015;SDS011;40919;43.236;21.590;2022-08-02T00:12:03;9.43;;;7.43;;
55015;SDS011;40919;43.236;21.590;2022-08-02T00:14:29;9.50;;;7.60;;
55015;SDS011;40919;43.236;21.590;2022-08-02T00:16:55;9.65;;;7.47;;
55015;SDS011;40919;43.236;21.590;2022-08-02T00:19:21;9.32;;;7.40;;
55015;SDS011;40919;43.236;21.590;2022-08-02T00:21:47;11.57;;;7.45;;
55015;SDS011;40919;43.236;21.590;2022-08-02T00:24:14;10.68;;;8.10;;
55015;SDS011;40919;43.236;21.590;2022-08-02T00:26:40;11.85;;;7.70;;
55015;SDS011;40919;43.236;21.590;2022-08-02T00:29:06;11.00;;;7.45;;
55015;SDS011;40919;43.236;21.590;2022-08-02T00:31:32;11.80;;;8.65;;
55015;SDS011;40919;43.236;21.590;2022-08-02T00:33:58;12.80;;;8.25;;
55015;SDS011;40919;43.236;21.590;2022-08-02T00:36:24;9.30;;;7.32;;
55015;SDS011;40919;43.236;21.590;2022-08-02T00:38:51;10.90;;;8.10;;
55015;SDS011;40919;43.236;21.590;2022-08-02T00:41:18;12.00;;;7.82;;
55015;SDS011;40919;43.236;21.590;2022-08-02T00:43:45;10.88;;;7.63;;
55015;SDS011;40919;43.236;21.590;2022-08-02T00:46:12;8.13;;;7.10;;
55015;SDS011;40919;43.236;21.590;2022-08-02T00:48:38;8.23;;;7.43;;
55015;SDS011;40919;43.236;21.590;2022-08-02T00:51:05;9.65;;;7.88;;
55015;SDS011;40919;43.236;21.590;2022-08-02T00:53:32;11.38;;;7.95;;
55015;SDS011;40919;43.236;21.590;2022-08-02T00:55:58;9.63;;;7.72;;
55015;SDS011;40919;43.236;21.590;2022-08-02T00:58:25;10.13;;;7.75;;
55015;SDS011;40919;43.236;21.590;2022-08-02T01:00:51;9.68;;;7.65;;
55015;SDS011;40919;43.236;21.590;2022-08-02T01:03:17;8.57;;;7.50;;
55015;SDS011;40919;43.236;21.590;2022-08-02T01:05:44;11.00;;;7.93;;
55015;SDS011;40919;43.236;21.590;2022-08-02T01:08:10;10.23;;;7.78;;
55015;SDS011;40919;43.236;21.590;2022-08-02T01:10:36;12.35;;;8.02;;
55015;SDS011;40919;43.236;21.590;2022-08-02T01:13:02;11.10;;;8.65;;
55015;SDS011;40919;43.236;21.590;2022-08-02T01:15:29;9.38;;;7.78;;
55015;SDS011;40919;43.236;21.590;2022-08-02T01:17:59;9.20;;;8.20;;
55015;SDS011;40919;43.236;21.590;2022-08-02T01:26:33;9.00;;;7.60;;
55015;SDS011;40919;43.236;21.590;2022-08-02T01:31:52;10.32;;;7.70;;
55015;SDS011;40919;43.236;21.590;2022-08-02T01:34:24;11.40;;;8.07;;
55015;SDS011;40919;43.236;21.590;2022-08-02T01:36:58;12.07;;;8.35;;
55015;SDS011;40919;43.236;21.590;2022-08-02T01:39:32;12.70;;;9.32;;
55015;SDS011;40919;43.236;21.590;2022-08-02T01:41:59;13.20;;;9.20;;
55015;SDS011;40919;43.236;21.590;2022-08-02T01:44:28;9.75;;;8.55;;
55015;SDS011;40919;43.236;21.590;2022-08-02T01:46:58;10.40;;;8.23;;
55015;SDS011;40919;43.236;21.590;2022-08-02T01:49:29;9.90;;;8.13;;
55015;SDS011;40919;43.236;21.590;2022-08-02T01:51:59;12.68;;;9.20;;
55015;SDS011;40919;43.236;21.590;2022-08-02T01:54:49;9.93;;;8.60;;
55015;SDS011;40919;43.236;21.590;2022-08-02T01:57:17;11.38;;;8.05;;
55015;SDS011;40919;43.236;21.590;2022-08-02T01:59:46;10.10;;;8.93;;
55015;SDS011;40919;43.236;21.590;2022-08-02T02:02:13;11.77;;;8.15;;
55015;SDS011;40919;43.236;21.590;2022-08-02T02:04:41;9.75;;;8.07;;
55015;SDS011;40919;43.236;21.590;2022-08-02T02:07:08;12.10;;;8.30;;
55015;SDS011;40919;43.236;21.590;2022-08-02T02:09:36;10.35;;;8.57;;
55015;SDS011;40919;43.236;21.590;2022-08-02T02:12:04;10.45;;;9.15;;
55015;SDS011;40919;43.236;21.590;2022-08-02T02:14:32;10.15;;;9.02;;
55015;SDS011;40919;43.236;21.590;2022-08-02T02:17:00;9.55;;;8.43;;
55015;SDS011;40919;43.236;21.590;2022-08-02T02:19:27;9.63;;;8.60;;
55015;SDS011;40919;43.236;21.590;2022-08-02T02:21:55;13.60;;;8.93;;
55015;SDS011;40919;43.236;21.590;2022-08-02T02:24:22;11.85;;;8.23;;
55015;SDS011;40919;43.236;21.590;2022-08-02T02:26:48;11.30;;;8.02;;
55015;SDS011;40919;43.236;21.590;2022-08-02T02:29:15;15.77;;;9.43;;
55015;SDS011;40919;43.236;21.590;2022-08-02T02:31:46;9.18;;;8.13;;
55015;SDS011;40919;43.236;21.590;2022-08-02T02:34:14;10.77;;;8.30;;
55015;SDS011;40919;43.236;21.590;2022-08-02T02:36:48;11.70;;;8.02;;
55015;SDS011;40919;43.236;21.590;2022-08-02T02:39:17;13.80;;;9.57;;
55015;SDS011;40919;43.236;21.590;2022-08-02T02:41:46;10.23;;;8.57;;
55015;SDS011;40919;43.236;21.590;2022-08-02T02:44:15;10.90;;;9.35;;
55015;SDS011;40919;43.236;21.590;2022-08-02T02:46:45;11.90;;;9.13;;
55015;SDS011;40919;43.236;21.590;2022-08-02T02:49:16;9.77;;;7.70;;
55015;SDS011;40919;43.236;21.590;2022-08-02T02:51:43;10.00;;;7.70;;
55015;SDS011;40919;43.236;21.590;2022-08-02T02:54:11;11.43;;;8.65;;
55015;SDS011;40919;43.236;21.590;2022-08-02T02:56:37;11.35;;;8.38;;
55015;SDS011;40919;43.236;21.590;2022-08-02T02:59:06;10.50;;;7.80;;
55015;SDS011;40919;43.236;21.590;2022-08-02T03:01:32;11.05;;;8.10;;
55015;SDS011;40919;43.236;21.590;2022-08-02T03:03:59;9.98;;;8.35;;
55015;SDS011;40919;43.236;21.590;2022-08-02T03:06:27;11.35;;;8.50;;
55015;SDS011;40919;43.236;21.590;2022-08-02T03:08:54;9.15;;;7.95;;
55015;SDS011;40919;43.236;21.590;2022-08-02T03:11:20;11.68;;;8.40;;
55015;SDS011;40919;43.236;21.590;2022-08-02T03:13:47;12.07;;;8.07;;
55015;SDS011;40919;43.236;21.590;2022-08-02T03:16:13;10.45;;;8.27;;
55015;SDS011;40919;43.236;21.590;2022-08-02T03:18:40;9.40;;;8.50;;
55015;SDS011;40919;43.236;21.590;2022-08-02T03:21:08;10.00;;;8.18;;
55015;SDS011;40919;43.236;21.590;2022-08-02T03:23:38;11.70;;;9.07;;
55015;SDS011;40919;43.236;21.590;2022-08-02T03:26:06;13.75;;;9.10;;
55015;SDS011;40919;43.236;21.590;2022-08-02T03:28:32;9.80;;;8.50;;
55015;SDS011;40919;43.236;21.590;2022-08-02T03:30:59;11.20;;;8.93;;
55015;SDS011;40919;43.236;21.590;2022-08-02T03:33:26;12.20;;;8.65;;
55015;SDS011;40919;43.236;21.590;2022-08-02T03:35:53;10.63;;;8.80;;
55015;SDS011;40919;43.236;21.590;2022-08-02T03:38:20;9.60;;;8.32;;
55015;SDS011;40919;43.236;21.590;2022-08-02T03:40:46;9.23;;;7.97;;
55015;SDS011;40919;43.236;21.590;2022-08-02T03:43:13;8.88;;;7.95;;
55015;SDS011;40919;43.236;21.590;2022-08-02T03:45:44;8.60;;;7.75;;
55015;SDS011;40919;43.236;21.590;2022-08-02T03:48:14;11.75;;;8.82;;
55015;SDS011;40919;43.236;21.590;2022-08-02T03:50:41;9.35;;;8.18;;
55015;SDS011;40919;43.236;21.590;2022-08-02T03:53:08;12.60;;;8.50;;
55015;SDS011;40919;43.236;21.590;2022-08-02T03:55:34;9.77;;;8.30;;
55015;SDS011;40919;43.236;21.590;2022-08-02T03:58:01;14.10;;;9.70;;
55015;SDS011;40919;43.236;21.590;2022-08-02T04:00:27;9.68;;;7.97;;
55015;SDS011;40919;43.236;21.590;2022-08-02T04:02:53;9.70;;;8.18;;
55015;SDS011;40919;43.236;21.590;2022-08-02T04:05:20;12.00;;;8.55;;
55015;SDS011;40919;43.236;21.590;2022-08-02T04:07:46;10.77;;;8.85;;
55015;SDS011;40919;43.236;21.590;2022-08-02T04:10:13;9.20;;;7.90;;
55015;SDS011;40919;43.236;21.590;2022-08-02T04:12:39;10.85;;;8.52;;
55015;SDS011;40919;43.236;21.590;2022-08-02T04:15:05;10.02;;;8.15;;
55015;SDS011;40919;43.236;21.590;2022-08-02T04:17:33;12.45;;;7.97;;
55015;SDS011;40919;43.236;21.590;2022-08-02T04:22:34;9.38;;;8.35;;
55015;SDS011;40919;43.236;21.590;2022-08-02T04:25:02;11.80;;;8.38;;
55015;SDS011;40919;43.236;21.590;2022-08-02T04:27:30;11.68;;;8.75;;
55015;SDS011;40919;43.236;21.590;2022-08-02T04:29:56;10.07;;;7.65;;
55015;SDS011;40919;43.236;21.590;2022-08-02T04:32:23;9.63;;;8.50;;
55015;SDS011;40919;43.236;21.590;2022-08-02T04:34:49;11.23;;;8.55;;
55015;SDS011;40919;43.236;21.590;2022-08-02T04:37:15;11.77;;;7.65;;
55015;SDS011;40919;43.236;21.590;2022-08-02T04:39:42;10.50;;;8.07;;
55015;SDS011;40919;43.236;21.590;2022-08-02T04:42:08;10.00;;;8.88;;
55015;SDS011;40919;43.236;21.590;2022-08-02T04:44:34;11.25;;;7.82;;
55015;SDS011;40919;43.236;21.590;2022-08-02T04:47:01;14.35;;;10.07;;
55015;SDS011;40919;43.236;21.590;2022-08-02T04:49:29;12.45;;;8.02;;
55015;SDS011;40919;43.236;21.590;2022-08-02T04:51:56;9.27;;;8.27;;
55015;SDS011;40919;43.236;21.590;2022-08-02T04:54:22;12.43;;;8.43;;
55015;SDS011;40919;43.236;21.590;2022-08-02T04:56:50;11.80;;;7.60;;
55015;SDS011;40919;43.236;21.590;2022-08-02T04:59:16;11.43;;;8.18;;
55015;SDS011;40919;43.236;21.590;2022-08-02T05:01:42;14.77;;;8.98;;
55015;SDS011;40919;43.236;21.590;2022-08-02T05:04:08;9.82;;;8.00;;
55015;SDS011;40919;43.236;21.590;2022-08-02T05:06:35;12.57;;;7.70;;
55015;SDS011;40919;43.236;21.590;2022-08-02T05:09:01;12.20;;;8.48;;
55015;SDS011;40919;43.236;21.590;2022-08-02T05:11:27;10.38;;;7.78;;
55015;SDS011;40919;43.236;21.590;2022-08-02T05:13:53;11.02;;;8.82;;
55015;SDS011;40919;43.236;21.590;2022-08-02T05:16:20;12.52;;;8.07;;
55015;SDS011;40919;43.236;21.590;2022-08-02T05:18:46;13.25;;;8.30;;
55015;SDS011;40919;43.236;21.590;2022-08-02T05:21:12;15.50;;;8.40;;
55015;SDS011;40919;43.236;21.590;2022-08-02T05:23:39;8.45;;;7.55;;
55015;SDS011;40919;43.236;21.590;2022-08-02T05:26:05;12.48;;;8.35;;
55015;SDS011;40919;43.236;21.590;2022-08-02T05:28:31;14.23;;;8.15;;
55015;SDS011;40919;43.236;21.590;2022-08-02T05:30:58;11.45;;;8.88;;
55015;SDS011;40919;43.236;21.590;2022-08-02T05:33:24;13.00;;;8.05;;
55015;SDS011;40919;43.236;21.590;2022-08-02T05:35:50;11.60;;;7.78;;
55015;SDS011;40919;43.236;21.590;2022-08-02T05:38:17;14.32;;;8.88;;
55015;SDS011;40919;43.236;21.590;2022-08-02T05:40:43;18.40;;;9.10;;
55015;SDS011;40919;43.236;21.590;2022-08-02T05:43:12;18.02;;;9.30;;
55015;SDS011;40919;43.236;21.590;2022-08-02T05:45:39;14.27;;;8.98;;
55015;SDS011;40919;43.236;21.590;2022-08-02T05:48:06;11.88;;;8.40;;
55015;SDS011;40919;43.236;21.590;2022-08-02T05:50:38;9.90;;;7.88;;
55015;SDS011;40919;43.236;21.590;2022-08-02T05:56:02;15.80;;;7.40;;
55015;SDS011;40919;43.236;21.590;2022-08-02T05:58:52;12.07;;;7.47;;
55015;SDS011;40919;43.236;21.590;2022-08-02T06:01:30;14.02;;;7.80;;
55015;SDS011;40919;43.236;21.590;2022-08-02T06:04:07;12.13;;;7.72;;
55015;SDS011;40919;43.236;21.590;2022-08-02T06:09:22;11.80;;;7.85;;
55015;SDS011;40919;43.236;21.590;2022-08-02T06:11:50;10.90;;;7.78;;
55015;SDS011;40919;43.236;21.590;2022-08-02T06:14:17;10.57;;;7.65;;
55015;SDS011;40919;43.236;21.590;2022-08-02T06:16:44;14.60;;;8.13;;
55015;SDS011;40919;43.236;21.590;2022-08-02T06:19:11;11.93;;;7.38;;
55015;SDS011;40919;43.236;21.590;2022-08-02T06:21:40;13.02;;;7.85;;
55015;SDS011;40919;43.236;21.590;2022-08-02T06:24:08;10.00;;;7.38;;
55015;SDS011;40919;43.236;21.590;2022-08-02T06:26:35;9.80;;;7.07;;
55015;SDS011;40919;43.236;21.590;2022-08-02T06:29:02;13.23;;;7.20;;
55015;SDS011;40919;43.236;21.590;2022-08-02T06:31:28;10.70;;;6.97;;
55015;SDS011;40919;43.236;21.590;2022-08-02T06:33:55;8.65;;;6.95;;
55015;SDS011;40919;43.236;21.590;2022-08-02T06:41:41;9.52;;;6.43;;
55015;SDS011;40919;43.236;21.590;2022-08-02T06:44:08;10.40;;;6.30;;
55015;SDS011;40919;43.236;21.590;2022-08-02T06:46:35;12.18;;;7.70;;
55015;SDS011;40919;43.236;21.590;2022-08-02T06:49:02;10.63;;;6.63;;
55015;SDS011;40919;43.236;21.590;2022-08-02T06:51:28;8.55;;;6.70;;
55015;SDS011;40919;43.236;21.590;2022-08-02T06:53:55;8.20;;;5.35;;
55015;SDS011;40919;43.236;21.590;2022-08-02T06:56:21;6.50;;;4.13;;
55015;SDS011;40919;43.236;21.590;2022-08-02T06:58:47;9.75;;;5.13;;
55015;SDS011;40919;43.236;21.590;2022-08-02T07:01:14;6.20;;;4.30;;
55015;SDS011;40919;43.236;21.590;2022-08-02T07:03:43;10.95;;;3.72;;
55015;SDS011;40919;43.236;21.590;2022-08-02T07:06:09;6.28;;;4.15;;
55015;SDS011;40919;43.236;21.590;2022-08-02T07:08:36;7.15;;;3.47;;
55015;SDS011;40919;43.236;21.590;2022-08-02T07:11:05;7.45;;;3.83;;
55015;SDS011;40919;43.236;21.590;2022-08-02T07:13:41;5.65;;;3.78;;
55015;SDS011;40919;43.236;21.590;2022-08-02T07:16:07;6.57;;;4.28;;
55015;SDS011;40919;43.236;21.590;2022-08-02T07:18:34;7.40;;;3.70;;
55015;SDS011;40919;43.236;21.590;2022-08-02T07:21:01;9.98;;;3.92;;
55015;SDS011;40919;43.236;21.590;2022-08-02T07:23:30;7.70;;;3.17;;
55015;SDS011;40919;43.236;21.590;2022-08-02T07:25:57;5.30;;;3.10;;
55015;SDS011;40919;43.236;21.590;2022-08-02T07:28:24;9.25;;;3.58;;
55015;SDS011;40919;43.236;21.590;2022-08-02T07:30:50;8.02;;;3.42;;
55015;SDS011;40919;43.236;21.590;2022-08-02T07:33:17;6.72;;;3.10;;
55015;SDS011;40919;43.236;21.590;2022-08-02T07:35:43;9.07;;;3.03;;
55015;SDS011;40919;43.236;21.590;2022-08-02T07:38:09;6.57;;;3.30;;
55015;SDS011;40919;43.236;21.590;2022-08-02T07:40:36;4.53;;;2.80;;
55015;SDS011;40919;43.236;21.590;2022-08-02T07:43:02;4.60;;;3.03;;
55015;SDS011;40919;43.236;21.590;2022-08-02T07:45:31;5.78;;;3.00;;
55015;SDS011;40919;43.236;21.590;2022-08-02T07:48:00;7.68;;;3.40;;
55015;SDS011;40919;43.236;21.590;2022-08-02T07:50:27;4.70;;;3.20;;
55015;SDS011;40919;43.236;21.590;2022-08-02T07:52:54;9.52;;;3.20;;
55015;SDS011;40919;43.236;21.590;2022-08-02T07:55:20;5.03;;;3.60;;
55015;SDS011;40919;43.236;21.590;2022-08-02T07:57:46;6.05;;;2.95;;
55015;SDS011;40919;43.236;21.590;2022-08-02T08:00:13;5.05;;;3.00;;
55015;SDS011;40919;43.236;21.590;2022-08-02T08:03:04;6.00;;;2.90;;
55015;SDS011;40919;43.236;21.590;2022-08-02T08:05:46;4.32;;;2.22;;
55015;SDS011;40919;43.236;21.590;2022-08-02T08:08:18;4.38;;;1.85;;
55015;SDS011;40919;43.236;21.590;2022-08-02T08:10:59;4.55;;;2.22;;
55015;SDS011;40919;43.236;21.590;2022-08-02T08:17:02;4.38;;;1.70;;
55015;SDS011;40919;43.236;21.590;2022-08-02T08:25:23;6.05;;;2.72;;
55015;SDS011;40919;43.236;21.590;2022-08-02T08:27:49;4.53;;;2.28;;
55015;SDS011;40919;43.236;21.590;2022-08-02T08:30:16;5.75;;;2.38;;
55015;SDS011;40919;43.236;21.590;2022-08-02T08:32:43;7.32;;;2.30;;
55015;SDS011;40919;43.236;21.590;2022-08-02T08:35:09;8.52;;;2.55;;
55015;SDS011;40919;43.236;21.590;2022-08-02T08:37:35;9.75;;;6.25;;
55015;SDS011;40919;43.236;21.590;2022-08-02T08:40:06;6.90;;;3.30;;
55015;SDS011;40919;43.236;21.590;2022-08-02T08:42:34;5.88;;;3.22;;
55015;SDS011;40919;43.236;21.590;2022-08-02T08:45:00;4.38;;;2.47;;
55015;SDS011;40919;43.236;21.590;2022-08-02T08:47:27;3.15;;;1.98;;
55015;SDS011;40919;43.236;21.590;2022-08-02T08:49:54;6.63;;;4.90;;
55015;SDS011;40919;43.236;21.590;2022-08-02T08:52:24;3.15;;;1.90;;
55015;SDS011;40919;43.236;21.590;2022-08-02T08:54:52;4.03;;;1.98;;
55015;SDS011;40919;43.236;21.590;2022-08-02T08:57:19;5.80;;;2.00;;
55015;SDS011;40919;43.236;21.590;2022-08-02T08:59:46;4.03;;;2.15;;
55015;SDS011;40919;43.236;21.590;2022-08-02T09:02:12;5.22;;;2.05;;
55015;SDS011;40919;43.236;21.590;2022-08-02T09:04:38;4.10;;;2.10;;
55015;SDS011;40919;43.236;21.590;2022-08-02T09:07:05;5.93;;;2.38;;
55015;SDS011;40919;43.236;21.590;2022-08-02T09:09:31;5.03;;;2.40;;
55015;SDS011;40919;43.236;21.590;2022-08-02T09:12:13;4.32;;;2.05;;
55015;SDS011;40919;43.236;21.590;2022-08-02T09:14:40;4.82;;;2.40;;
55015;SDS011;40919;43.236;21.590;2022-08-02T09:17:13;5.78;;;2.20;;
55015;SDS011;40919;43.236;21.590;2022-08-02T09:19:40;4.57;;;2.90;;
55015;SDS011;40919;43.236;21.590;2022-08-02T09:22:07;5.95;;;2.40;;
55015;SDS011;40919;43.236;21.590;2022-08-02T09:24:41;4.57;;;2.13;;
55015;SDS011;40919;43.236;21.590;2022-08-02T09:27:18;5.30;;;2.65;;
55015;SDS011;40919;43.236;21.590;2022-08-02T09:29:51;6.45;;;2.90;;
55015;SDS011;40919;43.236;21.590;2022-08-02T09:32:18;3.40;;;2.08;;
55015;SDS011;40919;43.236;21.590;2022-08-02T09:34:45;9.35;;;4.18;;
55015;SDS011;40919;43.236;21.590;2022-08-02T09:37:25;6.88;;;2.65;;
55015;SDS011;40919;43.236;21.590;2022-08-02T09:39:51;4.80;;;2.47;;
55015;SDS011;40919;43.236;21.590;2022-08-02T09:42:17;8.93;;;2.45;;
55015;SDS011;40919;43.236;21.590;2022-08-02T09:44:54;6.25;;;2.95;;
55015;SDS011;40919;43.236;21.590;2022-08-02T09:47:20;4.85;;;2.15;;
55015;SDS011;40919;43.236;21.590;2022-08-02T09:49:47;4.07;;;2.30;;
55015;SDS011;40919;43.236;21.590;2022-08-02T09:52:13;7.28;;;2.60;;
55015;SDS011;40919;43.236;21.590;2022-08-02T09:54:39;5.60;;;2.72;;
55015;SDS011;40919;43.236;21.590;2022-08-02T09:57:06;4.40;;;2.33;;
55015;SDS011;40919;43.236;21.590;2022-08-02T09:59:32;7.97;;;3.05;;
55015;SDS011;40919;43.236;21.590;2022-08-02T10:01:59;4.72;;;2.72;;
55015;SDS011;40919;43.236;21.590;2022-08-02T10:04:27;7.35;;;2.40;;
55015;SDS011;40919;43.236;21.590;2022-08-02T10:06:54;6.70;;;3.00;;
55015;SDS011;40919;43.236;21.590;2022-08-02T10:09:20;5.32;;;2.65;;
55015;SDS011;40919;43.236;21.590;2022-08-02T10:11:47;4.90;;;2.58;;
55015;SDS011;40919;43.236;21.590;2022-08-02T10:14:13;9.48;;;2.80;;
55015;SDS011;40919;43.236;21.590;2022-08-02T10:16:40;4.85;;;2.63;;
55015;SDS011;40919;43.236;21.590;2022-08-02T10:19:08;4.85;;;2.20;;
55015;SDS011;40919;43.236;21.590;2022-08-02T10:21:36;6.07;;;2.70;;
55015;SDS011;40919;43.236;21.590;2022-08-02T10:24:17;5.05;;;2.63;;
55015;SDS011;40919;43.236;21.590;2022-08-02T10:26:47;5.07;;;2.33;;
55015;SDS011;40919;43.236;21.590;2022-08-02T10:29:14;7.00;;;2.28;;
55015;SDS011;40919;43.236;21.590;2022-08-02T10:31:55;4.30;;;2.30;;
55015;SDS011;40919;43.236;21.590;2022-08-02T10:34:32;4.43;;;2.20;;
55015;SDS011;40919;43.236;21.590;2022-08-02T10:37:05;6.18;;;2.50;;
55015;SDS011;40919;43.236;21.590;2022-08-02T10:42:03;3.90;;;2.30;;
55015;SDS011;40919;43.236;21.590;2022-08-02T10:44:31;4.43;;;3.33;;
55015;SDS011;40919;43.236;21.590;2022-08-02T10:49:49;5.38;;;3.20;;
55015;SDS011;40919;43.236;21.590;2022-08-02T10:52:20;5.32;;;2.15;;
55015;SDS011;40919;43.236;21.590;2022-08-02T10:57:20;4.35;;;1.95;;
55015;SDS011;40919;43.236;21.590;2022-08-02T10:59:47;4.45;;;2.03;;
55015;SDS011;40919;43.236;21.590;2022-08-02T11:02:31;3.80;;;2.00;;
55015;SDS011;40919;43.236;21.590;2022-08-02T11:05:09;4.55;;;2.22;;
55015;SDS011;40919;43.236;21.590;2022-08-02T11:07:39;4.45;;;2.38;;
55015;SDS011;40919;43.236;21.590;2022-08-02T11:13:12;5.53;;;2.70;;
55015;SDS011;40919;43.236;21.590;2022-08-02T11:18:22;9.52;;;7.85;;
55015;SDS011;40919;43.236;21.590;2022-08-02T11:21:21;4.90;;;2.25;;
55015;SDS011;40919;43.236;21.590;2022-08-02T11:23:49;5.38;;;2.75;;
55015;SDS011;40919;43.236;21.590;2022-08-02T11:28:57;5.13;;;1.88;;
55015;SDS011;40919;43.236;21.590;2022-08-02T11:31:24;11.55;;;2.30;;
55015;SDS011;40919;43.236;21.590;2022-08-02T11:33:50;5.60;;;2.28;;
55015;SDS011;40919;43.236;21.590;2022-08-02T11:36:17;4.80;;;2.17;;
55015;SDS011;40919;43.236;21.590;2022-08-02T11:38:43;3.30;;;2.00;;
55015;SDS011;40919;43.236;21.590;2022-08-02T11:41:17;4.45;;;1.80;;
55015;SDS011;40919;43.236;21.590;2022-08-02T11:43:44;4.20;;;2.38;;
55015;SDS011;40919;43.236;21.590;2022-08-02T11:46:11;4.68;;;2.42;;
55015;SDS011;40919;43.236;21.590;2022-08-02T11:48:41;4.30;;;2.40;;
55015;SDS011;40919;43.236;21.590;2022-08-02T11:51:09;6.07;;;2.33;;
55015;SDS011;40919;43.236;21.590;2022-08-02T11:53:52;4.13;;;2.13;;
55015;SDS011;40919;43.236;21.590;2022-08-02T11:56:25;3.85;;;2.30;;
55015;SDS011;40919;43.236;21.590;2022-08-02T11:59:08;3.38;;;2.17;;
55015;SDS011;40919;43.236;21.590;2022-08-02T12:01:38;3.30;;;1.90;;
55015;SDS011;40919;43.236;21.590;2022-08-02T12:04:05;4.32;;;2.17;;
55015;SDS011;40919;43.236;21.590;2022-08-02T12:06:32;3.63;;;2.42;;
55015;SDS011;40919;43.236;21.590;2022-08-02T12:09:01;4.03;;;2.40;;
55015;SDS011;40919;43.236;21.590;2022-08-02T12:11:32;8.35;;;2.78;;
55015;SDS011;40919;43.236;21.590;2022-08-02T12:14:00;4.85;;;2.63;;
55015;SDS011;40919;43.236;21.590;2022-08-02T12:16:34;6.43;;;3.20;;
55015;SDS011;40919;43.236;21.590;2022-08-02T12:19:21;5.15;;;2.30;;
55015;SDS011;40919;43.236;21.590;2022-08-02T12:22:05;6.32;;;2.63;;
55015;SDS011;40919;43.236;21.590;2022-08-02T12:24:42;4.40;;;2.45;;
55015;SDS011;40919;43.236;21.590;2022-08-02T12:30:01;6.55;;;2.33;;
55015;SDS011;40919;43.236;21.590;2022-08-02T12:32:33;4.38;;;2.53;;
55015;SDS011;40919;43.236;21.590;2022-08-02T12:35:00;4.15;;;2.05;;
55015;SDS011;40919;43.236;21.590;2022-08-02T12:37:37;5.13;;;2.60;;
55015;SDS011;40919;43.236;21.590;2022-08-02T12:42:57;8.40;;;3.55;;
55015;SDS011;40919;43.236;21.590;2022-08-02T12:45:29;6.00;;;3.70;;
55015;SDS011;40919;43.236;21.590;2022-08-02T12:47:57;5.22;;;2.63;;
55015;SDS011;40919;43.236;21.590;2022-08-02T12:50:25;5.07;;;2.70;;
55015;SDS011;40919;43.236;21.590;2022-08-02T12:53:07;7.63;;;2.85;;
55015;SDS011;40919;43.236;21.590;2022-08-02T12:55:35;4.65;;;2.28;;
55015;SDS011;40919;43.236;21.590;2022-08-02T12:58:11;5.78;;;2.40;;
55015;SDS011;40919;43.236;21.590;2022-08-02T13:00:37;5.55;;;2.42;;
55015;SDS011;40919;43.236;21.590;2022-08-02T13:03:04;5.13;;;2.38;;
55015;SDS011;40919;43.236;21.590;2022-08-02T13:05:33;3.80;;;2.30;;
55015;SDS011;40919;43.236;21.590;2022-08-02T13:08:00;3.88;;;2.10;;
55015;SDS011;40919;43.236;21.590;2022-08-02T13:10:27;5.38;;;2.38;;
55015;SDS011;40919;43.236;21.590;2022-08-02T13:12:54;5.25;;;2.70;;
55015;SDS011;40919;43.236;21.590;2022-08-02T13:15:20;5.13;;;3.30;;
55015;SDS011;40919;43.236;21.590;2022-08-02T13:17:47;4.05;;;2.08;;
55015;SDS011;40919;43.236;21.590;2022-08-02T13:20:13;4.25;;;2.13;;
55015;SDS011;40919;43.236;21.590;2022-08-02T13:22:41;4.68;;;2.25;;
55015;SDS011;40919;43.236;21.590;2022-08-02T13:25:08;4.97;;;2.22;;
55015;SDS011;40919;43.236;21.590;2022-08-02T13:27:34;6.75;;;2.40;;
55015;SDS011;40919;43.236;21.590;2022-08-02T13:30:02;3.92;;;2.30;;
55015;SDS011;40919;43.236;21.590;2022-08-02T13:32:28;3.13;;;2.10;;
55015;SDS011;40919;43.236;21.590;2022-08-02T13:34:55;4.32;;;2.10;;
55015;SDS011;40919;43.236;21.590;2022-08-02T13:37:22;3.50;;;1.90;;
55015;SDS011;40919;43.236;21.590;2022-08-02T13:39:48;4.60;;;2.20;;
55015;SDS011;40919;43.236;21.590;2022-08-02T13:42:14;3.25;;;1.80;;
55015;SDS011;40919;43.236;21.590;2022-08-02T13:44:41;4.18;;;2.10;;
55015;SDS011;40919;43.236;21.590;2022-08-02T13:47:07;3.47;;;1.92;;
55015;SDS011;40919;43.236;21.590;2022-08-02T13:49:35;4.07;;;2.00;;
55015;SDS011;40919;43.236;21.590;2022-08-02T13:52:05;5.65;;;2.42;;
55015;SDS011;40919;43.236;21.590;2022-08-02T13:54:31;6.90;;;2.80;;
55015;SDS011;40919;43.236;21.590;2022-08-02T13:56:57;4.28;;;2.30;;
55015;SDS011;40919;43.236;21.590;2022-08-02T13:59:23;4.85;;;3.15;;
55015;SDS011;40919;43.236;21.590;2022-08-02T14:01:49;4.22;;;2.33;;
55015;SDS011;40919;43.236;21.590;2022-08-02T14:04:15;3.90;;;2.17;;
55015;SDS011;40919;43.236;21.590;2022-08-02T14:06:41;6.30;;;2.63;;
55015;SDS011;40919;43.236;21.590;2022-08-02T14:09:07;3.28;;;2.05;;
55015;SDS011;40919;43.236;21.590;2022-08-02T14:11:33;5.35;;;2.03;;
55015;SDS011;40919;43.236;21.590;2022-08-02T14:14:00;3.60;;;2.15;;
55015;SDS011;40919;43.236;21.590;2022-08-02T14:16:26;7.63;;;2.20;;
55015;SDS011;40919;43.236;21.590;2022-08-02T14:18:52;4.53;;;1.90;;
55015;SDS011;40919;43.236;21.590;2022-08-02T14:21:19;3.70;;;2.15;;
55015;SDS011;40919;43.236;21.590;2022-08-02T14:23:45;3.88;;;2.00;;
55015;SDS011;40919;43.236;21.590;2022-08-02T14:26:11;3.28;;;1.80;;
55015;SDS011;40919;43.236;21.590;2022-08-02T14:28:38;3.63;;;1.80;;
55015;SDS011;40919;43.236;21.590;2022-08-02T14:31:04;3.72;;;1.80;;
55015;SDS011;40919;43.236;21.590;2022-08-02T14:33:31;4.78;;;2.00;;
55015;SDS011;40919;43.236;21.590;2022-08-02T14:35:57;9.90;;;2.25;;
55015;SDS011;40919;43.236;21.590;2022-08-02T14:38:24;3.50;;;1.85;;
55015;SDS011;40919;43.236;21.590;2022-08-02T14:40:50;3.00;;;1.70;;
55015;SDS011;40919;43.236;21.590;2022-08-02T14:43:16;4.75;;;1.88;;
55015;SDS011;40919;43.236;21.590;2022-08-02T14:46:01;4.93;;;2.00;;
55015;SDS011;40919;43.236;21.590;2022-08-02T14:48:28;3.88;;;1.90;;
55015;SDS011;40919;43.236;21.590;2022-08-02T14:50:57;7.57;;;5.60;;
55015;SDS011;40919;43.236;21.590;2022-08-02T14:53:24;5.05;;;2.38;;
55015;SDS011;40919;43.236;21.590;2022-08-02T14:56:05;5.15;;;2.28;;
55015;SDS011;40919;43.236;21.590;2022-08-02T14:58:38;6.82;;;3.10;;
55015;SDS011;40919;43.236;21.590;2022-08-02T15:01:04;5.88;;;2.00;;
55015;SDS011;40919;43.236;21.590;2022-08-02T15:03:30;3.90;;;2.38;;
55015;SDS011;40919;43.236;21.590;2022-08-02T15:05:57;6.57;;;2.50;;
55015;SDS011;40919;43.236;21.590;2022-08-02T15:08:23;4.18;;;2.20;;
55015;SDS011;40919;43.236;21.590;2022-08-02T15:10:49;3.78;;;2.25;;
55015;SDS011;40919;43.236;21.590;2022-08-02T15:13:16;3.72;;;2.13;;
55015;SDS011;40919;43.236;21.590;2022-08-02T15:15:42;4.47;;;2.00;;
55015;SDS011;40919;43.236;21.590;2022-08-02T15:18:08;5.78;;;2.03;;
55015;SDS011;40919;43.236;21.590;2022-08-02T15:20:35;7.18;;;2.40;;
55015;SDS011;40919;43.236;21.590;2022-08-02T15:23:01;6.05;;;2.30;;
55015;SDS011;40919;43.236;21.590;2022-08-02T15:25:28;3.97;;;2.35;;
55015;SDS011;40919;43.236;21.590;2022-08-02T15:27:54;4.88;;;2.10;;
55015;SDS011;40919;43.236;21.590;2022-08-02T15:30:20;3.78;;;2.78;;
55015;SDS011;40919;43.236;21.590;2022-08-02T15:32:47;8.27;;;2.47;;